createdAt,value
2022-08-03T00:01:18.539Z,18.34
2022-08-03T00:03:46.295Z,18.28
2022-08-03T00:06:14.093Z,18.23
2022-08-03T00:08:42.019Z,18.20
2022-08-03T00:11:09.762Z,18.19
2022-08-03T00:13:37.415Z,18.15
2022-08-03T00:16:05.794Z,18.12
2022-08-03T00:18:33.643Z,18.09
2022-08-03T00:21:01.559Z,18.06
2022-08-03T00:23:51.921Z,18.06
2022-08-03T00:25:59.114Z,18.04
2022-08-03T00:28:26.812Z,18.06
2022-08-03T00:30:57.861Z,18.07
2022-08-03T00:33:25.471Z,18.06
2022-08-03T00:35:54.800Z,18.07
2022-08-03T00:38:22.502Z,18.10
2022-08-03T00:40:50.095Z,18.13
2022-08-03T00:43:18.015Z,18.14
2022-08-03T00:45:45.844Z,18.16
2022-08-03T00:48:27.251Z,18.19
2022-08-03T00:50:43.827Z,18.22
2022-08-03T00:53:13.073Z,18.22
2022-08-03T00:55:42.467Z,18.21
2022-08-03T00:58:11.339Z,18.17
2022-08-03T01:00:40.942Z,18.13
2022-08-03T01:03:10.479Z,18.09
2022-08-03T01:06:17.762Z,18.05
2022-08-03T01:08:50.706Z,18.01
2022-08-03T01:11:33.175Z,17.93
2022-08-03T01:14:30.904Z,17.88
2022-08-03T01:17:15.944Z,17.81
2022-08-03T01:20:04.285Z,17.77
2022-08-03T01:23:09.477Z,17.72
2022-08-03T01:25:44.973Z,17.65
2022-08-03T01:28:47.042Z,17.63
2022-08-03T01:31:18.928Z,17.61
2022-08-03T01:33:52.120Z,17.55
2022-08-03T01:36:31.332Z,17.50
2022-08-03T01:39:04.882Z,17.43
2022-08-03T01:41:55.414Z,17.38
2022-08-03T01:44:29.358Z,17.34
2022-08-03T01:47:03.784Z,17.32
2022-08-03T01:49:45.234Z,17.33
2022-08-03T01:52:30.059Z,17.31
2022-08-03T01:55:04.071Z,17.30
2022-08-03T01:58:05.336Z,17.33
2022-08-03T02:00:19.022Z,17.38
2022-08-03T02:02:50.690Z,17.42
2022-08-03T02:05:22.778Z,17.46
2022-08-03T02:07:51.731Z,17.47
2022-08-03T02:10:23.579Z,17.49
2022-08-03T02:12:52.187Z,17.48
2022-08-03T02:15:20.798Z,17.52
2022-08-03T02:17:49.414Z,17.53
2022-08-03T02:20:18.073Z,17.53
2022-08-03T02:22:47.449Z,17.52
2022-08-03T02:25:17.430Z,17.54
2022-08-03T02:27:50.442Z,17.51
2022-08-03T02:30:20.153Z,17.49
2022-08-03T02:32:52.901Z,17.49
2022-08-03T02:35:24.948Z,17.45
2022-08-03T02:37:58.565Z,17.39
2022-08-03T02:40:29.593Z,17.31
2022-08-03T02:43:05.265Z,17.26
2022-08-03T02:45:35.873Z,17.21
2022-08-03T02:48:06.678Z,17.19
2022-08-03T02:50:35.167Z,17.15
2022-08-03T02:53:04.055Z,17.13
2022-08-03T02:55:34.843Z,17.12
2022-08-03T02:58:04.080Z,17.11
2022-08-03T03:00:33.953Z,17.10
2022-08-03T03:03:04.543Z,17.10
2022-08-03T03:05:53.716Z,17.08
2022-08-03T03:08:02.631Z,17.09
2022-08-03T03:10:30.716Z,17.11
2022-08-03T03:12:59.867Z,17.11
2022-08-03T03:15:31.311Z,17.12
2022-08-03T03:18:01.043Z,17.11
2022-08-03T03:20:30.643Z,17.09
2022-08-03T03:23:01.054Z,17.11
2022-08-03T03:25:33.417Z,17.09
2022-08-03T03:28:03.046Z,17.10
2022-08-03T03:30:31.193Z,17.11
2022-08-03T03:32:59.339Z,17.11
2022-08-03T03:35:27.910Z,17.11
2022-08-03T03:37:56.491Z,17.08
2022-08-03T03:40:24.654Z,17.06
2022-08-03T03:42:52.621Z,17.05
2022-08-03T03:45:22.358Z,17.05
2022-08-03T03:47:52.324Z,17.03
2022-08-03T03:50:22.354Z,17.04
2022-08-03T03:52:50.031Z,17.07
2022-08-03T03:55:19.066Z,17.06
2022-08-03T03:57:46.647Z,17.08
2022-08-03T04:00:17.144Z,17.10
2022-08-03T04:02:45.752Z,17.10
2022-08-03T04:05:33.278Z,17.08
2022-08-03T04:08:26.896Z,17.08
2022-08-03T04:11:08.721Z,17.08
2022-08-03T04:13:48.085Z,17.11
2022-08-03T04:16:19.251Z,17.13
2022-08-03T04:18:51.352Z,17.17
2022-08-03T04:21:22.905Z,17.18
2022-08-03T04:23:55.203Z,17.22
2022-08-03T04:26:27.228Z,17.27
2022-08-03T04:28:55.752Z,17.34
2022-08-03T04:31:24.446Z,17.43
2022-08-03T04:33:53.891Z,17.53
2022-08-03T04:36:26.870Z,17.63
2022-08-03T04:39:06.213Z,17.72
2022-08-03T04:42:04.358Z,17.83
2022-08-03T04:44:06.945Z,17.93
2022-08-03T04:46:39.870Z,18.01
2022-08-03T04:49:10.053Z,18.11
2022-08-03T04:51:40.159Z,18.17
2022-08-03T04:54:13.488Z,18.23
2022-08-03T04:56:41.187Z,18.28
2022-08-03T04:59:10.284Z,18.34
2022-08-03T05:01:40.150Z,18.36
2022-08-03T05:04:08.209Z,18.39
2022-08-03T05:06:35.995Z,18.41
2022-08-03T05:09:05.609Z,18.45
2022-08-03T05:11:34.015Z,18.49
2022-08-03T05:14:01.558Z,18.52
2022-08-03T05:16:29.010Z,18.54
2022-08-03T05:18:56.491Z,18.55
2022-08-03T05:21:24.229Z,18.58
2022-08-03T05:23:51.896Z,18.64
2022-08-03T05:26:19.511Z,18.69
2022-08-03T05:28:51.014Z,18.72
2022-08-03T05:31:16.816Z,18.77
2022-08-03T05:33:44.542Z,18.79
2022-08-03T05:36:12.195Z,18.83
2022-08-03T05:38:40.192Z,18.89
2022-08-03T05:41:21.188Z,18.94
2022-08-03T05:43:38.679Z,19.02
2022-08-03T05:46:12.028Z,19.09
2022-08-03T05:48:36.578Z,19.16
2022-08-03T05:51:06.430Z,19.25
2022-08-03T05:53:35.154Z,19.37
2022-08-03T05:56:13.259Z,19.51
2022-08-03T05:58:32.865Z,19.61
2022-08-03T06:01:01.187Z,19.72
2022-08-03T06:03:28.733Z,19.86
2022-08-03T06:06:00.274Z,20.05
2022-08-03T06:08:25.798Z,20.16
2022-08-03T06:10:53.347Z,20.32
2022-08-03T06:13:21.665Z,20.45
2022-08-03T06:15:49.364Z,20.59
2022-08-03T06:18:17.363Z,20.72
2022-08-03T06:20:45.254Z,20.82
2022-08-03T06:23:17.585Z,20.88
2022-08-03T06:25:44.232Z,20.92
2022-08-03T06:28:35.353Z,21.01
2022-08-03T06:30:43.295Z,21.07
2022-08-03T06:33:11.067Z,21.15
2022-08-03T06:35:38.639Z,21.23
2022-08-03T06:38:08.514Z,21.27
2022-08-03T06:40:38.908Z,21.36
2022-08-03T06:43:12.348Z,21.44
2022-08-03T06:45:37.687Z,21.51
2022-08-03T06:48:13.551Z,21.59
2022-08-03T06:50:43.934Z,21.65
2022-08-03T06:53:18.254Z,21.71
2022-08-03T06:55:41.882Z,21.83
2022-08-03T06:58:10.390Z,21.93
2022-08-03T07:00:38.124Z,21.93
2022-08-03T07:03:05.815Z,21.95
2022-08-03T07:05:34.769Z,22.01
2022-08-03T07:08:02.800Z,22.03
2022-08-03T07:10:30.531Z,22.11
2022-08-03T07:12:57.858Z,22.19
2022-08-03T07:15:53.908Z,22.29
2022-08-03T07:17:55.438Z,22.41
2022-08-03T07:20:22.986Z,22.48
2022-08-03T07:22:50.791Z,22.58
2022-08-03T07:25:19.453Z,22.70
2022-08-03T07:27:51.690Z,22.83
2022-08-03T07:30:18.633Z,22.99
2022-08-03T07:32:50.363Z,23.12
2022-08-03T07:35:24.498Z,23.21
2022-08-03T07:37:53.040Z,23.27
2022-08-03T07:40:14.760Z,23.32
2022-08-03T07:42:42.393Z,23.40
2022-08-03T07:45:10.354Z,23.54
2022-08-03T07:47:39.999Z,23.62
2022-08-03T07:50:09.738Z,23.69
2022-08-03T07:52:50.599Z,23.79
2022-08-03T07:55:33.401Z,23.94
2022-08-03T07:58:09.534Z,24.06
2022-08-03T08:00:48.742Z,24.19
2022-08-03T08:03:17.957Z,24.37
2022-08-03T08:05:46.303Z,24.51
2022-08-03T08:08:15.514Z,24.65
2022-08-03T08:10:56.897Z,24.76
2022-08-03T08:13:14.691Z,24.78
2022-08-03T08:15:43.741Z,24.79
2022-08-03T08:18:12.335Z,24.92
2022-08-03T08:20:39.957Z,25.04
2022-08-03T08:23:27.611Z,25.19
2022-08-03T08:25:39.301Z,25.35
2022-08-03T08:28:31.373Z,25.46
2022-08-03T08:30:36.502Z,25.54
2022-08-03T08:33:03.989Z,25.70
2022-08-03T08:35:31.664Z,25.82
2022-08-03T08:38:05.641Z,25.87
2022-08-03T08:40:30.513Z,25.93
2022-08-03T08:42:59.250Z,26.04
2022-08-03T08:45:27.706Z,26.08
2022-08-03T08:48:01.008Z,26.17
2022-08-03T08:50:28.098Z,26.26
2022-08-03T08:53:00.545Z,26.36
2022-08-03T08:55:29.534Z,26.34
2022-08-03T08:58:05.935Z,26.42
2022-08-03T09:00:33.849Z,26.58
2022-08-03T09:03:01.739Z,26.67
2022-08-03T09:05:54.877Z,26.80
2022-08-03T09:08:01.896Z,26.93
2022-08-03T09:10:29.807Z,26.95
2022-08-03T09:12:57.630Z,26.97
2022-08-03T09:15:31.819Z,26.89
2022-08-03T09:18:03.532Z,26.92
2022-08-03T09:20:34.287Z,27.04
2022-08-03T09:23:43.020Z,27.01
2022-08-03T09:25:42.485Z,27.02
2022-08-03T09:28:52.705Z,27.14
2022-08-03T09:30:58.785Z,27.12
2022-08-03T09:33:26.483Z,27.15
2022-08-03T09:35:57.841Z,27.21
2022-08-03T09:38:26.981Z,27.31
2022-08-03T09:40:59.883Z,27.52
2022-08-03T09:43:27.165Z,27.71
2022-08-03T09:46:04.543Z,27.64
2022-08-03T09:48:34.195Z,27.64
2022-08-03T09:51:13.611Z,27.79
2022-08-03T09:53:57.102Z,27.98
2022-08-03T09:56:33.568Z,28.10
2022-08-03T09:58:47.273Z,28.15
2022-08-03T10:01:24.148Z,28.10
2022-08-03T10:04:04.152Z,28.17
2022-08-03T10:06:21.871Z,28.37
2022-08-03T10:09:11.679Z,28.47
2022-08-03T10:11:42.271Z,28.49
2022-08-03T10:14:14.710Z,28.50
2022-08-03T10:16:42.391Z,28.68
2022-08-03T10:19:10.196Z,28.83
2022-08-03T10:21:41.173Z,28.77
2022-08-03T10:24:12.685Z,28.84
2022-08-03T10:26:49.808Z,28.91
2022-08-03T10:29:16.285Z,28.89
2022-08-03T10:31:57.716Z,28.88
2022-08-03T10:34:21.446Z,28.79
2022-08-03T10:36:53.089Z,28.72
2022-08-03T10:39:24.029Z,28.68
2022-08-03T10:41:54.092Z,28.88
2022-08-03T10:44:26.208Z,29.12
2022-08-03T10:46:54.513Z,29.01
2022-08-03T10:49:34.403Z,28.95
2022-08-03T10:51:54.436Z,29.07
2022-08-03T10:55:00.728Z,29.31
2022-08-03T10:57:49.936Z,29.43
2022-08-03T11:00:21.681Z,29.45
2022-08-03T11:03:10.194Z,29.50
2022-08-03T11:05:41.703Z,29.67
2022-08-03T11:08:27.470Z,29.86
2022-08-03T11:11:00.515Z,29.92
2022-08-03T11:13:31.562Z,30.02
2022-08-03T11:16:04.895Z,30.15
2022-08-03T11:18:32.641Z,30.32
2022-08-03T11:21:00.827Z,30.44
2022-08-03T11:24:05.275Z,30.47
2022-08-03T11:26:22.210Z,30.46
2022-08-03T11:28:50.113Z,30.44
2022-08-03T11:34:10.909Z,30.67
2022-08-03T11:37:24.067Z,30.77
2022-08-03T11:39:54.928Z,30.83
2022-08-03T11:42:28.682Z,30.89
2022-08-03T11:44:58.532Z,30.99
2022-08-03T11:47:29.591Z,30.94
2022-08-03T11:50:01.482Z,31.01
2022-08-03T11:52:35.998Z,31.04
2022-08-03T11:55:11.089Z,31.01
2022-08-03T11:59:16.470Z,31.04
2022-08-03T12:00:25.948Z,31.07
2022-08-03T12:03:07.729Z,31.03
2022-08-03T12:05:51.202Z,31.07
2022-08-03T12:08:14.910Z,31.18
2022-08-03T12:10:49.842Z,31.15
2022-08-03T12:14:32.971Z,31.08
2022-08-03T12:15:56.745Z,30.99
2022-08-03T12:18:25.522Z,30.95
2022-08-03T12:20:57.541Z,31.14
2022-08-03T12:23:27.424Z,31.32
2022-08-03T12:26:02.827Z,31.50
2022-08-03T12:28:36.231Z,31.67
2022-08-03T12:31:09.028Z,31.85
2022-08-03T12:33:59.061Z,31.97
2022-08-03T12:36:27.848Z,31.95
2022-08-03T12:39:02.372Z,31.92
2022-08-03T12:41:39.574Z,31.89
2022-08-03T12:44:09.234Z,31.84
2022-08-03T12:46:44.143Z,31.72
2022-08-03T12:49:14.697Z,31.75
2022-08-03T12:51:47.840Z,31.60
2022-08-03T12:54:25.562Z,31.50
2022-08-03T12:57:03.511Z,31.42
2022-08-03T12:59:40.424Z,31.47
2022-08-03T13:02:04.910Z,31.58
2022-08-03T13:04:36.306Z,31.32
2022-08-03T13:07:14.262Z,31.03
2022-08-03T13:09:49.493Z,30.87
2022-08-03T13:12:27.046Z,30.72
2022-08-03T13:15:00.261Z,30.73
2022-08-03T13:17:28.516Z,30.87
2022-08-03T13:19:56.383Z,30.99
2022-08-03T13:22:29.748Z,31.07
2022-08-03T13:24:57.823Z,31.18
2022-08-03T13:28:04.291Z,31.33
2022-08-03T13:29:57.679Z,31.45
2022-08-03T13:32:25.653Z,31.56
2022-08-03T13:34:53.334Z,31.58
2022-08-03T13:37:21.475Z,31.64
2022-08-03T13:39:59.212Z,31.60
2022-08-03T13:42:18.878Z,31.52
2022-08-03T13:44:46.649Z,31.32
2022-08-03T13:47:14.559Z,31.14
2022-08-03T13:49:42.472Z,31.03
2022-08-03T13:52:12.109Z,31.07
2022-08-03T13:54:39.981Z,31.10
2022-08-03T13:58:04.968Z,31.02
2022-08-03T13:59:40.580Z,30.73
2022-08-03T14:02:08.522Z,30.51
2022-08-03T14:04:36.238Z,30.57
2022-08-03T14:07:04.447Z,30.70
2022-08-03T14:09:32.026Z,30.75
2022-08-03T14:12:04.031Z,30.81
2022-08-03T14:14:29.802Z,30.92
2022-08-03T14:16:57.568Z,30.98
2022-08-03T14:19:25.524Z,31.11
2022-08-03T14:21:53.309Z,31.21
2022-08-03T14:24:23.025Z,31.17
2022-08-03T14:26:51.656Z,31.25
2022-08-03T14:29:19.249Z,31.33
2022-08-03T14:32:10.974Z,31.40
2022-08-03T14:34:16.382Z,31.53
2022-08-03T14:36:44.015Z,31.55
2022-08-03T14:39:12.291Z,31.55
2022-08-03T14:41:39.899Z,31.61
2022-08-03T14:44:07.612Z,31.67
2022-08-03T14:46:35.416Z,31.66
2022-08-03T14:50:37.961Z,31.61
2022-08-03T14:51:34.416Z,31.65
2022-08-03T14:54:02.152Z,31.62
2022-08-03T14:56:29.966Z,31.67
2022-08-03T14:58:57.698Z,31.65
2022-08-03T15:02:02.513Z,31.53
2022-08-03T15:03:54.970Z,31.50
2022-08-03T15:06:22.910Z,31.51
2022-08-03T15:09:20.870Z,31.53
2022-08-03T15:11:20.273Z,31.56
2022-08-03T15:13:48.128Z,31.61
2022-08-03T15:16:15.468Z,31.63
2022-08-03T15:18:43.379Z,31.66
2022-08-03T15:21:16.558Z,31.60
2022-08-03T15:23:40.658Z,31.53
2022-08-03T15:26:32.749Z,31.43
2022-08-03T15:28:37.858Z,31.18
2022-08-03T15:31:06.694Z,31.11
2022-08-03T15:33:35.140Z,31.01
2022-08-03T15:36:04.511Z,30.97
2022-08-03T15:38:32.546Z,30.86
2022-08-03T15:41:00.206Z,30.84
2022-08-03T15:43:28.235Z,30.80
2022-08-03T15:46:26.538Z,30.79
2022-08-03T15:48:26.663Z,30.74
2022-08-03T15:50:54.616Z,30.70
2022-08-03T15:53:22.681Z,30.64
2022-08-03T15:55:50.312Z,30.62
2022-08-03T15:59:04.069Z,30.47
2022-08-03T16:00:47.831Z,30.38
2022-08-03T16:03:15.637Z,30.40
2022-08-03T16:05:43.422Z,30.34
2022-08-03T16:08:13.880Z,30.34
2022-08-03T16:10:41.483Z,30.28
2022-08-03T16:13:09.331Z,30.24
2022-08-03T16:15:38.871Z,30.16
2022-08-03T16:18:07.218Z,30.10
2022-08-03T16:20:35.509Z,30.04
2022-08-03T16:23:10.702Z,29.93
2022-08-03T16:25:34.651Z,29.83
2022-08-03T16:28:07.936Z,29.75
2022-08-03T16:30:31.817Z,29.69
2022-08-03T16:33:00.957Z,29.60
2022-08-03T16:35:28.710Z,29.56
2022-08-03T16:37:57.040Z,29.51
2022-08-03T16:40:25.692Z,29.45
2022-08-03T16:42:54.172Z,29.39
2022-08-03T16:45:22.464Z,29.31
2022-08-03T16:48:01.679Z,29.24
2022-08-03T16:50:21.071Z,29.18
2022-08-03T16:52:49.897Z,29.15
2022-08-03T16:55:18.537Z,29.09
2022-08-03T16:57:58.882Z,29.04
2022-08-03T17:00:34.109Z,28.90
2022-08-03T17:02:50.083Z,28.84
2022-08-03T17:05:18.197Z,28.81
2022-08-03T17:07:50.715Z,28.77
2022-08-03T17:10:17.016Z,28.73
2022-08-03T17:12:46.676Z,28.68
2022-08-03T17:15:14.539Z,28.61
2022-08-03T17:17:53.478Z,28.54
2022-08-03T17:20:18.093Z,28.49
2022-08-03T17:22:51.393Z,28.46
2022-08-03T17:25:51.418Z,28.40
2022-08-03T17:28:50.873Z,28.35
2022-08-03T17:30:25.186Z,28.29
2022-08-03T17:32:57.591Z,28.20
2022-08-03T17:35:23.184Z,28.06
2022-08-03T17:38:03.387Z,27.93
2022-08-03T17:40:22.078Z,27.76
2022-08-03T17:42:51.103Z,27.61
2022-08-03T17:45:20.480Z,27.46
2022-08-03T17:47:57.176Z,27.32
2022-08-03T17:50:24.127Z,27.20
2022-08-03T17:52:50.314Z,27.03
2022-08-03T17:55:54.915Z,26.88
2022-08-03T17:58:03.338Z,26.74
2022-08-03T18:00:51.801Z,26.56
2022-08-03T18:03:58.340Z,26.43
2022-08-03T18:06:16.205Z,26.26
2022-08-03T18:08:55.049Z,26.10
2022-08-03T18:11:35.626Z,25.99
2022-08-03T18:14:25.582Z,25.86
2022-08-03T18:17:04.933Z,25.69
2022-08-03T18:20:03.506Z,25.52
2022-08-03T18:22:07.282Z,25.38
2022-08-03T18:24:38.304Z,25.22
2022-08-03T18:27:07.479Z,25.09
2022-08-03T18:29:36.724Z,24.97
2022-08-03T18:32:13.272Z,24.86
2022-08-03T18:34:41.081Z,24.78
2022-08-03T18:37:08.207Z,24.70
2022-08-03T18:39:39.081Z,24.60
2022-08-03T18:42:08.305Z,24.54
2022-08-03T18:44:54.095Z,24.48
2022-08-03T18:47:51.984Z,24.43
2022-08-03T18:50:33.441Z,24.39
2022-08-03T18:53:15.702Z,24.32
2022-08-03T18:56:01.236Z,24.27
2022-08-03T18:58:21.623Z,24.20
2022-08-03T19:01:58.200Z,24.11
2022-08-03T19:04:03.713Z,24.01
2022-08-03T19:06:33.386Z,23.87
2022-08-03T19:09:09.604Z,23.77
2022-08-03T19:12:13.104Z,23.68
2022-08-03T19:14:18.679Z,23.61
2022-08-03T19:16:49.231Z,23.55
2022-08-03T19:19:20.972Z,23.47
2022-08-03T19:21:51.957Z,23.42
2022-08-03T19:24:22.084Z,23.35
2022-08-03T19:26:55.652Z,23.30
2022-08-03T19:29:24.705Z,23.24
2022-08-03T19:31:59.365Z,23.20
2022-08-03T19:34:29.997Z,23.11
2022-08-03T19:36:58.777Z,23.08
2022-08-03T19:39:26.402Z,23.08
2022-08-03T19:41:58.425Z,23.06
2022-08-03T19:44:31.429Z,23.07
2022-08-03T19:47:03.562Z,23.07
2022-08-03T19:50:00.037Z,23.02
2022-08-03T19:52:10.850Z,22.96
2022-08-03T19:54:53.950Z,22.91
2022-08-03T19:57:19.468Z,22.83
2022-08-03T19:59:50.630Z,22.80
2022-08-03T20:02:26.206Z,22.75
2022-08-03T20:04:49.959Z,22.71
2022-08-03T20:07:22.625Z,22.63
2022-08-03T20:09:48.562Z,22.59
2022-08-03T20:12:18.777Z,22.53
2022-08-03T20:14:48.685Z,22.48
2022-08-03T20:17:21.139Z,22.42
2022-08-03T20:19:51.318Z,22.37
2022-08-03T20:22:31.157Z,22.34
2022-08-03T20:25:03.559Z,22.31
2022-08-03T20:28:07.001Z,22.29
2022-08-03T20:30:08.040Z,22.27
2022-08-03T20:32:35.892Z,22.27
2022-08-03T20:35:05.057Z,22.21
2022-08-03T20:37:35.276Z,22.19
2022-08-03T20:40:06.716Z,22.18
2022-08-03T20:42:34.239Z,22.18
2022-08-03T20:45:05.549Z,22.14
2022-08-03T20:47:35.693Z,22.11
2022-08-03T20:50:07.800Z,22.06
2022-08-03T20:52:36.839Z,21.99
2022-08-03T20:55:13.042Z,21.91
2022-08-03T20:57:37.840Z,21.87
2022-08-03T21:00:10.870Z,21.79
2022-08-03T21:02:41.136Z,21.73
2022-08-03T21:05:09.744Z,21.66
2022-08-03T21:08:06.495Z,21.60
2022-08-03T21:10:17.893Z,21.56
2022-08-03T21:13:13.573Z,21.52
2022-08-03T21:16:06.274Z,21.51
2022-08-03T21:18:01.506Z,21.48
2022-08-03T21:20:34.690Z,21.47
2022-08-03T21:23:03.997Z,21.45
2022-08-03T21:25:33.857Z,21.43
2022-08-03T21:28:01.607Z,21.41
2022-08-03T21:30:30.433Z,21.40
2022-08-03T21:32:58.606Z,21.38
2022-08-03T21:35:26.894Z,21.35
2022-08-03T21:38:13.162Z,21.32
2022-08-03T21:40:41.209Z,21.29
2022-08-03T21:43:09.568Z,21.28
2022-08-03T21:45:54.633Z,21.26
2022-08-03T21:48:25.515Z,21.28
2022-08-03T21:50:54.120Z,21.27
2022-08-03T21:53:26.203Z,21.24
2022-08-03T21:56:08.993Z,21.20
2022-08-03T21:58:50.984Z,21.17
2022-08-03T22:01:22.541Z,21.13
2022-08-03T22:03:54.074Z,21.06
2022-08-03T22:06:27.076Z,21.02
2022-08-03T22:08:53.838Z,20.98
2022-08-03T22:11:21.664Z,20.92
2022-08-03T22:13:50.636Z,20.89
2022-08-03T22:16:19.652Z,20.86
2022-08-03T22:18:47.369Z,20.83
2022-08-03T22:21:16.915Z,20.77
2022-08-03T22:23:50.612Z,20.74
2022-08-03T22:26:32.475Z,20.68
2022-08-03T22:28:59.705Z,20.64
2022-08-03T22:31:30.523Z,20.61
2022-08-03T22:33:57.421Z,20.59
2022-08-03T22:36:25.848Z,20.58
2022-08-03T22:38:53.621Z,20.58
2022-08-03T22:41:21.339Z,20.56
2022-08-03T22:43:49.663Z,20.55
2022-08-03T22:46:21.613Z,20.52
2022-08-03T22:48:51.531Z,20.48
2022-08-03T22:51:20.998Z,20.43
2022-08-03T22:53:49.087Z,20.38
2022-08-03T22:56:16.795Z,20.32
2022-08-03T22:58:44.626Z,20.29
2022-08-03T23:01:16.063Z,20.26
2022-08-03T23:04:01.247Z,20.22
2022-08-03T23:06:21.066Z,20.18
2022-08-03T23:08:50.487Z,20.14
2022-08-03T23:11:18.958Z,20.09
2022-08-03T23:13:51.115Z,20.04
2022-08-03T23:16:28.924Z,19.98
2022-08-03T23:18:52.559Z,19.93
2022-08-03T23:21:53.782Z,19.90
2022-08-03T23:23:50.093Z,19.89
2022-08-03T23:26:18.548Z,19.85
2022-08-03T23:28:46.962Z,19.82
2022-08-03T23:31:15.694Z,19.77
2022-08-03T23:33:45.178Z,19.75
2022-08-03T23:36:31.066Z,19.74
2022-08-03T23:38:48.334Z,19.72
2022-08-03T23:41:19.066Z,19.69
2022-08-03T23:43:51.860Z,19.66
2022-08-03T23:46:19.200Z,19.63
2022-08-03T23:48:46.631Z,19.60
2022-08-03T23:51:25.450Z,19.57
2022-08-03T23:54:20.929Z,19.53
2022-08-03T23:56:59.643Z,19.49
2022-08-03T23:59:58.547Z,19.44
